MSC Livorno — DIGY2 — position and weather

sailwx.info

Track history (hours):
 
Tides and Currents Weather Stations Pressure Air Temp Water Temp Dewpoint Dewpoint Depression Visibility Wind Speed Wind Dir Waves Ship Positions

MSC Livorno

Last reported at 2017-Dec-14 18:00 UTC. Time now 2017-Dec-15 10:12 UTC.
Position N 31°48' E 031°36'.

Length 366 m; draft 14.9 m.

Type: Ship (hazmat cat A). MMSI: 218441000.

Wind from 230 at 16 knots

Barometer 1021.0 mb
Air temperature 19.0 ° C
Visibility: greater than 10.8 NM
Dewpoint 11.4 ° C
Water temperature 21.8 ° C

Date/timePositionNaut miles runAvg speedWind from/ knotsBaromVisibWave heightAir tempDewpointWater temp
2017-Dec-14 18:00N 31°48' E 031°36'23319.4 230 / 161021.010.8 19.011.421.8
2017-Dec-14 06:00N 32°54' E 027°12'16618.4 200 / 71022.527.0 19.512.920.5
2017-Dec-13 21:00N 33°36' E 024°00'7224.0 290 / 171024.010.8 17.514.419.6
2017-Dec-13 18:00N 33°54' E 022°36'39919.2 200 / 141025.210.8 18.012.720.0
2017-Dec-12 21:14N 35°44' E 014°49'522.0
2017-Dec-12 20:59N 35°46' E 014°42'8 0.6
2017-Dec-12 06:41N 35°49' E 014°33'0 1.3
2017-Dec-12 06:30N 35°49' E 014°33'2 4.8
2017-Dec-12 05:59N 35°47' E 014°35'4 8.2
2017-Dec-12 05:30N 35°46' E 014°30'612.6
2017-Dec-12 05:00N 35°46' E 014°22'817.2
2017-Dec-12 04:30N 35°50' E 014°13'1019.8
2017-Dec-12 04:00N 35°56' E 014°03'1019.7
2017-Dec-12 03:30N 36°01' E 013°52'1520.2
2017-Dec-12 02:45N 36°09' E 013°37'27819.9
2017-Dec-11 12:46N 38°30' E 008°36'33720.1
2017-Dec-10 20:04N 41°13' E 002°12'517.4
2017-Dec-10 19:47N 41°18' E 002°10'1 0.0
2017-Dec-09 23:41N 41°19' E 002°10'15318.6
2017-Dec-09 15:28N 42°59' E 004°46'1021.0
2017-Dec-09 15:00N 43°06' E 004°54'918.8
2017-Dec-09 14:30N 43°15' E 004°60'815.9
2017-Dec-09 14:00N 43°23' E 004°57'510.4
2017-Dec-09 13:30N 43°25' E 004°51'1 1.0
2017-Dec-09 12:55N 43°25' E 004°50'0 0.0
2017-Dec-09 12:28N 43°25' E 004°50'0 0.0
2017-Dec-09 11:58N 43°25' E 004°50'0 0.0
2017-Dec-09 11:28N 43°25' E 004°50'0 0.0
2017-Dec-09 10:58N 43°25' E 004°50'0 0.0
2017-Dec-09 10:28N 43°25' E 004°50'0 0.0
2017-Dec-09 09:58N 43°25' E 004°50'0 0.0
2017-Dec-09 09:28N 43°25' E 004°50'0 0.0
2017-Dec-09 08:55N 43°25' E 004°50'0 0.0
2017-Dec-09 08:28N 43°25' E 004°50'0 0.0
2017-Dec-09 07:55N 43°25' E 004°50'0 0.0
2017-Dec-09 07:28N 43°25' E 004°50'0 0.0
2017-Dec-09 06:55N 43°25' E 004°50'0 0.0
2017-Dec-09 06:28N 43°25' E 004°50'0 0.0
2017-Dec-09 05:58N 43°25' E 004°50'0 0.0
2017-Dec-09 05:28N 43°25' E 004°50'0 0.0
2017-Dec-09 04:58N 43°25' E 004°50'0 0.0
2017-Dec-09 04:28N 43°25' E 004°50'0 0.0
2017-Dec-09 03:58N 43°25' E 004°50'0 0.0
2017-Dec-09 03:28N 43°25' E 004°50'0 0.0
2017-Dec-09 02:58N 43°25' E 004°50'0 0.0
2017-Dec-09 02:28N 43°25' E 004°50'0 0.0
2017-Dec-09 01:58N 43°25' E 004°50'0 0.0
2017-Dec-09 01:25N 43°25' E 004°50'0 0.0
2017-Dec-09 00:55N 43°25' E 004°50'0 0.0
2017-Dec-09 00:28N 43°25' E 004°50'0 0.0
2017-Dec-08 23:58N 43°25' E 004°50'0 0.0
2017-Dec-08 23:28N 43°25' E 004°50'0 0.0
2017-Dec-08 22:58N 43°25' E 004°50'0 0.0
2017-Dec-08 22:25N 43°25' E 004°50'0 0.0
2017-Dec-08 21:58N 43°25' E 004°50'0 0.0
2017-Dec-08 21:28N 43°25' E 004°50'0 0.0
2017-Dec-08 20:58N 43°25' E 004°50'0 0.0
2017-Dec-08 20:28N 43°25' E 004°50'0 0.0
2017-Dec-08 19:58N 43°25' E 004°50'0 0.0
2017-Dec-08 19:25N 43°25' E 004°50'0 0.0
2017-Dec-08 18:58N 43°25' E 004°50'0 0.0
2017-Dec-08 18:28N 43°25' E 004°50'0 0.0
2017-Dec-08 17:58N 43°25' E 004°50'0 0.0
2017-Dec-08 17:28N 43°25' E 004°50'0 0.0
2017-Dec-08 16:55N 43°25' E 004°50'0 0.0
2017-Dec-08 16:25N 43°25' E 004°50'0 0.0
2017-Dec-08 15:58N 43°25' E 004°50'0 0.0
2017-Dec-08 15:28N 43°25' E 004°50'0 0.0
2017-Dec-08 14:58N 43°25' E 004°50'0 0.0
2017-Dec-08 14:28N 43°25' E 004°50'0 0.0
2017-Dec-08 13:58N 43°25' E 004°50'0 0.0
2017-Dec-08 13:28N 43°25' E 004°50'0 0.0
2017-Dec-08 12:58N 43°25' E 004°50'0 0.0
2017-Dec-08 12:28N 43°25' E 004°50'0 0.0
2017-Dec-08 11:58N 43°25' E 004°50'0 0.0
2017-Dec-08 11:28N 43°25' E 004°50'0 0.0
2017-Dec-08 10:58N 43°25' E 004°50'0 0.0
2017-Dec-08 10:28N 43°25' E 004°50'0 0.0
2017-Dec-08 09:58N 43°25' E 004°50'0 0.0
2017-Dec-08 09:28N 43°25' E 004°50'0 0.0
2017-Dec-08 08:58N 43°25' E 004°50'0 0.0
2017-Dec-08 08:28N 43°25' E 004°50'0 0.0
2017-Dec-08 07:58N 43°25' E 004°50'0 0.0
2017-Dec-08 07:28N 43°25' E 004°50'0 0.0
2017-Dec-08 06:58N 43°25' E 004°50'0 0.0
2017-Dec-08 06:28N 43°25' E 004°50'0 0.0
2017-Dec-08 05:58N 43°25' E 004°50'0 0.0
2017-Dec-08 05:28N 43°25' E 004°50'0 0.0
2017-Dec-08 04:58N 43°25' E 004°50'0 0.0
2017-Dec-08 04:30N 43°25' E 004°50'0 0.9
2017-Dec-08 04:01N 43°25' E 004°51'1 2.4
2017-Dec-08 03:30N 43°24' E 004°52'510.6
2017-Dec-08 03:00N 43°22' E 004°58'4 8.1
2017-Dec-08 02:30N 43°18' E 005°00'714.5
2017-Dec-08 02:01N 43°11' E 005°02'1019.4
2017-Dec-08 01:31N 43°03' E 004°54'16919.1
2017-Dec-07 16:39N 41°04' E 002°11'319.2
2017-Dec-07 16:30N 41°02' E 002°08'1018.8
2017-Dec-07 16:00N 40°56' E 001°59'1019.1
2017-Dec-07 15:28N 40°49' E 001°49'  
Track history (hours):
 
Tides and Currents Weather Stations Pressure Air Temp Water Temp Dewpoint Dewpoint Depression Visibility Wind Speed Wind Dir Waves Ship Positions

MSC Livorno

Last reported at 2017-Dec-14 18:00 UTC. Time now 2017-Dec-15 10:12 UTC.
Position N 31°48' E 031°36'.

Length 366 m; draft 14.9 m.

Type: Ship (hazmat cat A). MMSI: 218441000.

Wind from 230 at 16 knots

Barometer 1021.0 mb
Air temperature 19.0 ° C
Visibility: greater than 10.8 NM
Dewpoint 11.4 ° C
Water temperature 21.8 ° C

Date/timePositionNaut miles runAvg speedWind from/ knotsBaromVisibWave heightAir tempDewpointWater temp
2017-Dec-14 18:00N 31°48' E 031°36'23319.4 230 / 161021.010.8 19.011.421.8
2017-Dec-14 06:00N 32°54' E 027°12'16618.4 200 / 71022.527.0 19.512.920.5
2017-Dec-13 21:00N 33°36' E 024°00'7224.0 290 / 171024.010.8 17.514.419.6
2017-Dec-13 18:00N 33°54' E 022°36'39919.2 200 / 141025.210.8 18.012.720.0
2017-Dec-12 21:14N 35°44' E 014°49'522.0
2017-Dec-12 20:59N 35°46' E 014°42'8 0.6
2017-Dec-12 06:41N 35°49' E 014°33'0 1.3
2017-Dec-12 06:30N 35°49' E 014°33'2 4.8
2017-Dec-12 05:59N 35°47' E 014°35'4 8.2
2017-Dec-12 05:30N 35°46' E 014°30'612.6
2017-Dec-12 05:00N 35°46' E 014°22'817.2
2017-Dec-12 04:30N 35°50' E 014°13'1019.8
2017-Dec-12 04:00N 35°56' E 014°03'1019.7
2017-Dec-12 03:30N 36°01' E 013°52'1520.2
2017-Dec-12 02:45N 36°09' E 013°37'27819.9
2017-Dec-11 12:46N 38°30' E 008°36'33720.1
2017-Dec-10 20:04N 41°13' E 002°12'517.4
2017-Dec-10 19:47N 41°18' E 002°10'1 0.0
2017-Dec-09 23:41N 41°19' E 002°10'15318.6
2017-Dec-09 15:28N 42°59' E 004°46'1021.0
2017-Dec-09 15:00N 43°06' E 004°54'918.8
2017-Dec-09 14:30N 43°15' E 004°60'815.9
2017-Dec-09 14:00N 43°23' E 004°57'510.4
2017-Dec-09 13:30N 43°25' E 004°51'1 1.0
2017-Dec-09 12:55N 43°25' E 004°50'0 0.0
2017-Dec-09 12:28N 43°25' E 004°50'0 0.0
2017-Dec-09 11:58N 43°25' E 004°50'0 0.0
2017-Dec-09 11:28N 43°25' E 004°50'0 0.0
2017-Dec-09 10:58N 43°25' E 004°50'0 0.0
2017-Dec-09 10:28N 43°25' E 004°50'0 0.0
2017-Dec-09 09:58N 43°25' E 004°50'0 0.0
2017-Dec-09 09:28N 43°25' E 004°50'0 0.0
2017-Dec-09 08:55N 43°25' E 004°50'0 0.0
2017-Dec-09 08:28N 43°25' E 004°50'0 0.0
2017-Dec-09 07:55N 43°25' E 004°50'0 0.0
2017-Dec-09 07:28N 43°25' E 004°50'0 0.0
2017-Dec-09 06:55N 43°25' E 004°50'0 0.0
2017-Dec-09 06:28N 43°25' E 004°50'0 0.0
2017-Dec-09 05:58N 43°25' E 004°50'0 0.0
2017-Dec-09 05:28N 43°25' E 004°50'0 0.0
2017-Dec-09 04:58N 43°25' E 004°50'0 0.0
2017-Dec-09 04:28N 43°25' E 004°50'0 0.0
2017-Dec-09 03:58N 43°25' E 004°50'0 0.0
2017-Dec-09 03:28N 43°25' E 004°50'0 0.0
2017-Dec-09 02:58N 43°25' E 004°50'0 0.0
2017-Dec-09 02:28N 43°25' E 004°50'0 0.0
2017-Dec-09 01:58N 43°25' E 004°50'0 0.0
2017-Dec-09 01:25N 43°25' E 004°50'0 0.0
2017-Dec-09 00:55N 43°25' E 004°50'0 0.0
2017-Dec-09 00:28N 43°25' E 004°50'0 0.0
2017-Dec-08 23:58N 43°25' E 004°50'0 0.0
2017-Dec-08 23:28N 43°25' E 004°50'0 0.0
2017-Dec-08 22:58N 43°25' E 004°50'0 0.0
2017-Dec-08 22:25N 43°25' E 004°50'0 0.0
2017-Dec-08 21:58N 43°25' E 004°50'0 0.0
2017-Dec-08 21:28N 43°25' E 004°50'0 0.0
2017-Dec-08 20:58N 43°25' E 004°50'0 0.0
2017-Dec-08 20:28N 43°25' E 004°50'0 0.0
2017-Dec-08 19:58N 43°25' E 004°50'0 0.0
2017-Dec-08 19:25N 43°25' E 004°50'0 0.0
2017-Dec-08 18:58N 43°25' E 004°50'0 0.0
2017-Dec-08 18:28N 43°25' E 004°50'0 0.0
2017-Dec-08 17:58N 43°25' E 004°50'0 0.0
2017-Dec-08 17:28N 43°25' E 004°50'0 0.0
2017-Dec-08 16:55N 43°25' E 004°50'0 0.0
2017-Dec-08 16:25N 43°25' E 004°50'0 0.0
2017-Dec-08 15:58N 43°25' E 004°50'0 0.0
2017-Dec-08 15:28N 43°25' E 004°50'0 0.0
2017-Dec-08 14:58N 43°25' E 004°50'0 0.0
2017-Dec-08 14:28N 43°25' E 004°50'0 0.0
2017-Dec-08 13:58N 43°25' E 004°50'0 0.0
2017-Dec-08 13:28N 43°25' E 004°50'0 0.0
2017-Dec-08 12:58N 43°25' E 004°50'0 0.0
2017-Dec-08 12:28N 43°25' E 004°50'0 0.0
2017-Dec-08 11:58N 43°25' E 004°50'0 0.0
2017-Dec-08 11:28N 43°25' E 004°50'0 0.0
2017-Dec-08 10:58N 43°25' E 004°50'0 0.0
2017-Dec-08 10:28N 43°25' E 004°50'0 0.0
2017-Dec-08 09:58N 43°25' E 004°50'0 0.0
2017-Dec-08 09:28N 43°25' E 004°50'0 0.0
2017-Dec-08 08:58N 43°25' E 004°50'0 0.0
2017-Dec-08 08:28N 43°25' E 004°50'0 0.0
2017-Dec-08 07:58N 43°25' E 004°50'0 0.0
2017-Dec-08 07:28N 43°25' E 004°50'0 0.0
2017-Dec-08 06:58N 43°25' E 004°50'0 0.0
2017-Dec-08 06:28N 43°25' E 004°50'0 0.0
2017-Dec-08 05:58N 43°25' E 004°50'0 0.0
2017-Dec-08 05:28N 43°25' E 004°50'0 0.0
2017-Dec-08 04:58N 43°25' E 004°50'0 0.0
2017-Dec-08 04:30N 43°25' E 004°50'0 0.9
2017-Dec-08 04:01N 43°25' E 004°51'1 2.4
2017-Dec-08 03:30N 43°24' E 004°52'510.6
2017-Dec-08 03:00N 43°22' E 004°58'4 8.1
2017-Dec-08 02:30N 43°18' E 005°00'714.5
2017-Dec-08 02:01N 43°11' E 005°02'1019.4
2017-Dec-08 01:31N 43°03' E 004°54'16919.1
2017-Dec-07 16:39N 41°04' E 002°11'319.2
2017-Dec-07 16:30N 41°02' E 002°08'1018.8
2017-Dec-07 16:00N 40°56' E 001°59'1019.1
2017-Dec-07 15:28N 40°49' E 001°49'  

Dump ship's entire track history